sensor_id;sensor_type;location;lat;lon;timestamp;P1;durP1;ratioP1;P2;durP2;ratioP2
19161;SDS011;9713;48.140;11.530;2023-06-05T00:00:08;7.93;;;4.97;;
19161;SDS011;9713;48.140;11.530;2023-06-05T00:03:52;7.57;;;5.18;;
19161;SDS011;9713;48.140;11.530;2023-06-05T00:07:36;8.32;;;4.88;;
19161;SDS011;9713;48.140;11.530;2023-06-05T00:11:20;7.60;;;4.90;;
19161;SDS011;9713;48.140;11.530;2023-06-05T00:15:05;6.05;;;4.65;;
19161;SDS011;9713;48.140;11.530;2023-06-05T00:18:48;7.43;;;4.95;;
19161;SDS011;9713;48.140;11.530;2023-06-05T00:22:31;4.95;;;4.45;;
19161;SDS011;9713;48.140;11.530;2023-06-05T00:26:15;7.70;;;5.20;;
19161;SDS011;9713;48.140;11.530;2023-06-05T00:29:57;7.40;;;5.25;;
19161;SDS011;9713;48.140;11.530;2023-06-05T00:33:42;6.28;;;4.95;;
19161;SDS011;9713;48.140;11.530;2023-06-05T00:37:24;7.53;;;5.50;;
19161;SDS011;9713;48.140;11.530;2023-06-05T00:41:08;8.52;;;5.18;;
19161;SDS011;9713;48.140;11.530;2023-06-05T00:44:51;8.18;;;5.35;;
19161;SDS011;9713;48.140;11.530;2023-06-05T00:48:34;10.63;;;5.70;;
19161;SDS011;9713;48.140;11.530;2023-06-05T00:52:18;7.20;;;5.53;;
19161;SDS011;9713;48.140;11.530;2023-06-05T00:56:01;12.55;;;5.80;;
19161;SDS011;9713;48.140;11.530;2023-06-05T00:59:44;6.47;;;5.32;;
19161;SDS011;9713;48.140;11.530;2023-06-05T01:03:27;7.57;;;5.82;;
19161;SDS011;9713;48.140;11.530;2023-06-05T01:07:10;10.65;;;5.72;;
19161;SDS011;9713;48.140;11.530;2023-06-05T01:10:56;10.20;;;6.53;;
19161;SDS011;9713;48.140;11.530;2023-06-05T01:14:42;9.13;;;6.38;;
19161;SDS011;9713;48.140;11.530;2023-06-05T01:18:27;8.15;;;6.28;;
19161;SDS011;9713;48.140;11.530;2023-06-05T01:22:11;8.88;;;6.88;;
19161;SDS011;9713;48.140;11.530;2023-06-05T01:25:56;9.35;;;7.13;;
19161;SDS011;9713;48.140;11.530;2023-06-05T01:29:45;9.27;;;6.57;;
19161;SDS011;9713;48.140;11.530;2023-06-05T01:33:35;10.38;;;7.10;;
19161;SDS011;9713;48.140;11.530;2023-06-05T01:37:23;10.02;;;7.07;;
19161;SDS011;9713;48.140;11.530;2023-06-05T01:41:08;10.18;;;7.50;;
19161;SDS011;9713;48.140;11.530;2023-06-05T01:44:52;9.18;;;7.35;;
19161;SDS011;9713;48.140;11.530;2023-06-05T01:48:35;10.50;;;7.35;;
19161;SDS011;9713;48.140;11.530;2023-06-05T01:52:20;11.18;;;7.40;;
19161;SDS011;9713;48.140;11.530;2023-06-05T01:56:03;11.50;;;8.02;;
19161;SDS011;9713;48.140;11.530;2023-06-05T01:59:49;10.50;;;7.43;;
19161;SDS011;9713;48.140;11.530;2023-06-05T02:03:32;9.85;;;7.88;;
19161;SDS011;9713;48.140;11.530;2023-06-05T02:07:15;11.32;;;8.10;;
19161;SDS011;9713;48.140;11.530;2023-06-05T02:10:58;9.43;;;7.30;;
19161;SDS011;9713;48.140;11.530;2023-06-05T02:14:43;10.60;;;7.88;;
19161;SDS011;9713;48.140;11.530;2023-06-05T02:18:28;9.43;;;7.40;;
19161;SDS011;9713;48.140;11.530;2023-06-05T02:22:13;9.68;;;7.30;;
19161;SDS011;9713;48.140;11.530;2023-06-05T02:25:56;9.48;;;8.20;;
19161;SDS011;9713;48.140;11.530;2023-06-05T02:29:39;12.43;;;8.05;;
19161;SDS011;9713;48.140;11.530;2023-06-05T02:33:22;10.75;;;7.95;;
19161;SDS011;9713;48.140;11.530;2023-06-05T02:37:06;11.13;;;8.00;;
19161;SDS011;9713;48.140;11.530;2023-06-05T02:40:53;11.15;;;7.78;;
19161;SDS011;9713;48.140;11.530;2023-06-05T02:44:36;14.32;;;8.30;;
19161;SDS011;9713;48.140;11.530;2023-06-05T02:48:18;12.50;;;8.27;;
19161;SDS011;9713;48.140;11.530;2023-06-05T02:52:04;10.57;;;8.20;;
19161;SDS011;9713;48.140;11.530;2023-06-05T02:55:48;11.35;;;7.90;;
19161;SDS011;9713;48.140;11.530;2023-06-05T02:59:31;13.85;;;8.05;;
19161;SDS011;9713;48.140;11.530;2023-06-05T03:03:14;10.48;;;7.65;;
19161;SDS011;9713;48.140;11.530;2023-06-05T03:06:58;10.70;;;8.50;;
19161;SDS011;9713;48.140;11.530;2023-06-05T03:10:45;9.55;;;8.15;;
19161;SDS011;9713;48.140;11.530;2023-06-05T03:14:29;10.07;;;8.55;;
19161;SDS011;9713;48.140;11.530;2023-06-05T03:18:12;12.40;;;8.60;;
19161;SDS011;9713;48.140;11.530;2023-06-05T03:21:55;12.80;;;8.98;;
19161;SDS011;9713;48.140;11.530;2023-06-05T03:25:38;13.82;;;7.93;;
19161;SDS011;9713;48.140;11.530;2023-06-05T03:29:21;8.60;;;7.47;;
19161;SDS011;9713;48.140;11.530;2023-06-05T03:33:06;13.18;;;8.75;;
19161;SDS011;9713;48.140;11.530;2023-06-05T03:36:49;10.57;;;8.13;;
19161;SDS011;9713;48.140;11.530;2023-06-05T03:40:32;10.85;;;8.15;;
19161;SDS011;9713;48.140;11.530;2023-06-05T03:44:15;10.85;;;8.82;;
19161;SDS011;9713;48.140;11.530;2023-06-05T03:47:58;10.53;;;8.87;;
19161;SDS011;9713;48.140;11.530;2023-06-05T03:51:43;13.10;;;8.57;;
19161;SDS011;9713;48.140;11.530;2023-06-05T03:55:26;11.98;;;8.68;;
19161;SDS011;9713;48.140;11.530;2023-06-05T03:59:17;9.90;;;8.48;;
19161;SDS011;9713;48.140;11.530;2023-06-05T04:03:01;11.73;;;8.90;;
19161;SDS011;9713;48.140;11.530;2023-06-05T04:06:45;12.37;;;8.77;;
19161;SDS011;9713;48.140;11.530;2023-06-05T04:10:28;13.88;;;9.27;;
19161;SDS011;9713;48.140;11.530;2023-06-05T04:14:11;11.32;;;9.10;;
19161;SDS011;9713;48.140;11.530;2023-06-05T04:17:54;13.40;;;9.20;;
19161;SDS011;9713;48.140;11.530;2023-06-05T04:21:37;12.77;;;9.00;;
19161;SDS011;9713;48.140;11.530;2023-06-05T04:25:22;13.82;;;10.00;;
19161;SDS011;9713;48.140;11.530;2023-06-05T04:29:05;13.70;;;9.75;;
19161;SDS011;9713;48.140;11.530;2023-06-05T04:32:51;12.30;;;9.32;;
19161;SDS011;9713;48.140;11.530;2023-06-05T04:36:36;11.13;;;9.13;;
19161;SDS011;9713;48.140;11.530;2023-06-05T04:40:18;16.38;;;9.55;;
19161;SDS011;9713;48.140;11.530;2023-06-05T04:44:03;12.43;;;8.67;;
19161;SDS011;9713;48.140;11.530;2023-06-05T04:47:46;11.57;;;8.95;;
19161;SDS011;9713;48.140;11.530;2023-06-05T04:51:29;11.15;;;8.48;;
19161;SDS011;9713;48.140;11.530;2023-06-05T04:55:12;14.65;;;8.82;;
19161;SDS011;9713;48.140;11.530;2023-06-05T04:58:57;16.23;;;8.17;;
19161;SDS011;9713;48.140;11.530;2023-06-05T05:02:42;10.30;;;8.68;;
19161;SDS011;9713;48.140;11.530;2023-06-05T05:06:25;12.32;;;8.10;;
19161;SDS011;9713;48.140;11.530;2023-06-05T05:10:08;12.70;;;9.13;;
19161;SDS011;9713;48.140;11.530;2023-06-05T05:13:51;11.05;;;8.77;;
19161;SDS011;9713;48.140;11.530;2023-06-05T05:17:34;11.60;;;8.70;;
19161;SDS011;9713;48.140;11.530;2023-06-05T05:21:18;11.40;;;8.45;;
19161;SDS011;9713;48.140;11.530;2023-06-05T05:25:01;12.75;;;8.73;;
19161;SDS011;9713;48.140;11.530;2023-06-05T05:28:44;12.45;;;8.40;;
19161;SDS011;9713;48.140;11.530;2023-06-05T05:32:27;9.45;;;7.93;;
19161;SDS011;9713;48.140;11.530;2023-06-05T05:36:10;13.40;;;7.97;;
19161;SDS011;9713;48.140;11.530;2023-06-05T05:39:56;9.88;;;7.78;;
19161;SDS011;9713;48.140;11.530;2023-06-05T05:43:39;18.20;;;9.13;;
19161;SDS011;9713;48.140;11.530;2023-06-05T05:47:22;9.85;;;8.65;;
19161;SDS011;9713;48.140;11.530;2023-06-05T05:51:05;13.30;;;8.82;;
19161;SDS011;9713;48.140;11.530;2023-06-05T05:54:49;11.90;;;8.45;;
19161;SDS011;9713;48.140;11.530;2023-06-05T05:58:34;11.90;;;8.73;;
19161;SDS011;9713;48.140;11.530;2023-06-05T06:02:17;13.20;;;8.30;;
19161;SDS011;9713;48.140;11.530;2023-06-05T06:06:00;11.90;;;8.40;;
19161;SDS011;9713;48.140;11.530;2023-06-05T06:09:44;11.90;;;8.80;;
19161;SDS011;9713;48.140;11.530;2023-06-05T06:13:27;10.48;;;7.97;;
19161;SDS011;9713;48.140;11.530;2023-06-05T06:17:12;12.07;;;9.35;;
19161;SDS011;9713;48.140;11.530;2023-06-05T06:20:54;13.40;;;7.90;;
19161;SDS011;9713;48.140;11.530;2023-06-05T06:24:38;12.70;;;9.00;;
19161;SDS011;9713;48.140;11.530;2023-06-05T06:28:22;12.48;;;8.20;;
19161;SDS011;9713;48.140;11.530;2023-06-05T06:32:05;9.85;;;8.02;;
19161;SDS011;9713;48.140;11.530;2023-06-05T06:35:50;12.23;;;9.25;;
19161;SDS011;9713;48.140;11.530;2023-06-05T06:39:33;10.68;;;8.32;;
19161;SDS011;9713;48.140;11.530;2023-06-05T06:43:16;11.82;;;8.65;;
19161;SDS011;9713;48.140;11.530;2023-06-05T06:47:02;11.73;;;8.45;;
19161;SDS011;9713;48.140;11.530;2023-06-05T06:50:45;11.85;;;8.63;;
19161;SDS011;9713;48.140;11.530;2023-06-05T06:54:29;13.63;;;9.82;;
19161;SDS011;9713;48.140;11.530;2023-06-05T06:58:12;11.30;;;7.95;;
19161;SDS011;9713;48.140;11.530;2023-06-05T07:02:09;15.68;;;8.05;;
19161;SDS011;9713;48.140;11.530;2023-06-05T07:05:52;11.15;;;8.07;;
19161;SDS011;9713;48.140;11.530;2023-06-05T07:09:38;14.38;;;9.02;;
19161;SDS011;9713;48.140;11.530;2023-06-05T07:13:21;13.10;;;9.15;;
19161;SDS011;9713;48.140;11.530;2023-06-05T07:17:04;9.57;;;7.38;;
19161;SDS011;9713;48.140;11.530;2023-06-05T07:20:47;14.18;;;7.72;;
19161;SDS011;9713;48.140;11.530;2023-06-05T07:24:30;8.90;;;7.57;;
19161;SDS011;9713;48.140;11.530;2023-06-05T07:28:14;10.18;;;7.70;;
19161;SDS011;9713;48.140;11.530;2023-06-05T07:31:58;13.75;;;8.45;;
19161;SDS011;9713;48.140;11.530;2023-06-05T07:35:47;9.63;;;8.05;;
19161;SDS011;9713;48.140;11.530;2023-06-05T07:39:30;10.88;;;8.18;;
19161;SDS011;9713;48.140;11.530;2023-06-05T07:43:12;11.10;;;7.25;;
19161;SDS011;9713;48.140;11.530;2023-06-05T07:46:59;9.85;;;7.90;;
19161;SDS011;9713;48.140;11.530;2023-06-05T07:50:41;11.43;;;8.13;;
19161;SDS011;9713;48.140;11.530;2023-06-05T07:54:24;11.20;;;8.27;;
19161;SDS011;9713;48.140;11.530;2023-06-05T07:58:07;10.73;;;7.45;;
19161;SDS011;9713;48.140;11.530;2023-06-05T08:01:51;13.02;;;7.78;;
19161;SDS011;9713;48.140;11.530;2023-06-05T08:05:34;15.50;;;9.93;;
19161;SDS011;9713;48.140;11.530;2023-06-05T08:09:17;9.60;;;7.00;;
19161;SDS011;9713;48.140;11.530;2023-06-05T08:13:00;10.00;;;7.07;;
19161;SDS011;9713;48.140;11.530;2023-06-05T08:16:43;12.15;;;7.85;;
19161;SDS011;9713;48.140;11.530;2023-06-05T08:20:28;11.00;;;6.65;;
19161;SDS011;9713;48.140;11.530;2023-06-05T08:24:10;10.35;;;6.90;;
19161;SDS011;9713;48.140;11.530;2023-06-05T08:27:56;11.63;;;7.68;;
19161;SDS011;9713;48.140;11.530;2023-06-05T08:31:39;11.88;;;7.28;;
19161;SDS011;9713;48.140;11.530;2023-06-05T08:35:22;9.88;;;6.50;;
19161;SDS011;9713;48.140;11.530;2023-06-05T08:39:06;11.50;;;6.95;;
19161;SDS011;9713;48.140;11.530;2023-06-05T08:42:49;9.25;;;5.88;;
19161;SDS011;9713;48.140;11.530;2023-06-05T08:46:32;10.30;;;6.10;;
19161;SDS011;9713;48.140;11.530;2023-06-05T08:50:17;8.43;;;6.38;;
19161;SDS011;9713;48.140;11.530;2023-06-05T08:54:02;12.77;;;6.70;;
19161;SDS011;9713;48.140;11.530;2023-06-05T08:57:47;14.05;;;6.20;;
19161;SDS011;9713;48.140;11.530;2023-06-05T09:01:30;9.50;;;6.68;;
19161;SDS011;9713;48.140;11.530;2023-06-05T09:05:14;11.55;;;6.68;;
19161;SDS011;9713;48.140;11.530;2023-06-05T09:08:57;9.02;;;6.72;;
19161;SDS011;9713;48.140;11.530;2023-06-05T09:12:53;11.52;;;6.78;;
19161;SDS011;9713;48.140;11.530;2023-06-05T09:16:37;10.65;;;6.47;;
19161;SDS011;9713;48.140;11.530;2023-06-05T09:20:23;8.25;;;5.88;;
19161;SDS011;9713;48.140;11.530;2023-06-05T09:24:12;8.57;;;6.15;;
19161;SDS011;9713;48.140;11.530;2023-06-05T09:28:06;11.13;;;6.65;;
19161;SDS011;9713;48.140;11.530;2023-06-05T09:31:49;8.75;;;6.60;;
19161;SDS011;9713;48.140;11.530;2023-06-05T09:35:33;11.55;;;6.07;;
19161;SDS011;9713;48.140;11.530;2023-06-05T09:39:20;10.18;;;6.85;;
19161;SDS011;9713;48.140;11.530;2023-06-05T09:43:06;8.15;;;6.30;;
19161;SDS011;9713;48.140;11.530;2023-06-05T09:46:57;8.13;;;6.13;;
19161;SDS011;9713;48.140;11.530;2023-06-05T09:50:40;12.27;;;6.28;;
19161;SDS011;9713;48.140;11.530;2023-06-05T09:54:25;9.75;;;6.32;;
19161;SDS011;9713;48.140;11.530;2023-06-05T09:58:11;11.15;;;5.50;;
19161;SDS011;9713;48.140;11.530;2023-06-05T10:01:55;8.77;;;6.45;;
19161;SDS011;9713;48.140;11.530;2023-06-05T10:05:38;10.07;;;7.00;;
19161;SDS011;9713;48.140;11.530;2023-06-05T10:09:23;8.65;;;6.20;;
19161;SDS011;9713;48.140;11.530;2023-06-05T10:13:06;7.93;;;6.65;;
19161;SDS011;9713;48.140;11.530;2023-06-05T10:16:50;11.00;;;6.00;;
19161;SDS011;9713;48.140;11.530;2023-06-05T10:20:34;8.60;;;6.05;;
19161;SDS011;9713;48.140;11.530;2023-06-05T10:24:19;9.20;;;6.18;;
19161;SDS011;9713;48.140;11.530;2023-06-05T10:32:22;10.05;;;5.20;;
19161;SDS011;9713;48.140;11.530;2023-06-05T10:36:15;10.57;;;6.22;;
19161;SDS011;9713;48.140;11.530;2023-06-05T10:40:09;10.98;;;5.40;;
19161;SDS011;9713;48.140;11.530;2023-06-05T10:43:53;6.93;;;5.35;;
19161;SDS011;9713;48.140;11.530;2023-06-05T10:47:51;11.00;;;5.30;;
19161;SDS011;9713;48.140;11.530;2023-06-05T10:51:35;6.57;;;5.75;;
19161;SDS011;9713;48.140;11.530;2023-06-05T10:55:19;9.15;;;5.05;;
19161;SDS011;9713;48.140;11.530;2023-06-05T10:59:12;7.03;;;4.82;;
19161;SDS011;9713;48.140;11.530;2023-06-05T11:02:57;8.88;;;5.45;;
19161;SDS011;9713;48.140;11.530;2023-06-05T11:06:42;7.28;;;5.82;;
19161;SDS011;9713;48.140;11.530;2023-06-05T11:11:03;7.95;;;5.90;;
19161;SDS011;9713;48.140;11.530;2023-06-05T11:14:47;7.97;;;5.47;;
19161;SDS011;9713;48.140;11.530;2023-06-05T11:18:32;8.50;;;4.97;;
19161;SDS011;9713;48.140;11.530;2023-06-05T11:22:16;6.60;;;4.93;;
19161;SDS011;9713;48.140;11.530;2023-06-05T11:30:20;7.30;;;5.18;;
19161;SDS011;9713;48.140;11.530;2023-06-05T11:34:25;6.78;;;5.22;;
19161;SDS011;9713;48.140;11.530;2023-06-05T11:38:09;8.40;;;5.57;;
19161;SDS011;9713;48.140;11.530;2023-06-05T11:41:53;8.75;;;5.47;;
19161;SDS011;9713;48.140;11.530;2023-06-05T11:45:36;6.40;;;5.13;;
19161;SDS011;9713;48.140;11.530;2023-06-05T11:49:26;6.57;;;5.20;;
19161;SDS011;9713;48.140;11.530;2023-06-05T11:53:10;8.55;;;5.28;;
19161;SDS011;9713;48.140;11.530;2023-06-05T11:57:00;7.78;;;5.22;;
19161;SDS011;9713;48.140;11.530;2023-06-05T12:00:49;6.88;;;5.30;;
19161;SDS011;9713;48.140;11.530;2023-06-05T12:04:34;8.55;;;6.00;;
19161;SDS011;9713;48.140;11.530;2023-06-05T12:08:24;6.72;;;4.85;;
19161;SDS011;9713;48.140;11.530;2023-06-05T12:12:08;5.78;;;4.95;;
19161;SDS011;9713;48.140;11.530;2023-06-05T12:15:57;9.52;;;5.10;;
19161;SDS011;9713;48.140;11.530;2023-06-05T12:19:44;10.80;;;6.50;;
19161;SDS011;9713;48.140;11.530;2023-06-05T12:23:34;8.95;;;5.53;;
19161;SDS011;9713;48.140;11.530;2023-06-05T12:27:29;8.52;;;5.53;;
19161;SDS011;9713;48.140;11.530;2023-06-05T12:31:32;9.27;;;4.82;;
19161;SDS011;9713;48.140;11.530;2023-06-05T12:35:20;7.63;;;4.90;;
19161;SDS011;9713;48.140;11.530;2023-06-05T12:39:03;6.80;;;4.95;;
19161;SDS011;9713;48.140;11.530;2023-06-05T12:42:48;6.95;;;4.85;;
19161;SDS011;9713;48.140;11.530;2023-06-05T12:46:30;6.20;;;5.18;;
19161;SDS011;9713;48.140;11.530;2023-06-05T12:50:13;7.70;;;5.60;;
19161;SDS011;9713;48.140;11.530;2023-06-05T12:53:58;7.35;;;4.80;;
19161;SDS011;9713;48.140;11.530;2023-06-05T12:57:41;6.30;;;4.47;;
19161;SDS011;9713;48.140;11.530;2023-06-05T13:01:24;7.28;;;4.72;;
19161;SDS011;9713;48.140;11.530;2023-06-05T13:05:08;5.43;;;4.25;;
19161;SDS011;9713;48.140;11.530;2023-06-05T13:08:51;7.85;;;4.53;;
19161;SDS011;9713;48.140;11.530;2023-06-05T13:12:35;8.05;;;4.50;;
19161;SDS011;9713;48.140;11.530;2023-06-05T13:16:18;6.85;;;4.38;;
19161;SDS011;9713;48.140;11.530;2023-06-05T13:20:01;8.25;;;4.88;;
19161;SDS011;9713;48.140;11.530;2023-06-05T13:23:47;10.80;;;4.75;;
19161;SDS011;9713;48.140;11.530;2023-06-05T13:27:30;6.10;;;4.75;;
19161;SDS011;9713;48.140;11.530;2023-06-05T13:31:15;6.03;;;4.40;;
19161;SDS011;9713;48.140;11.530;2023-06-05T13:34:58;8.60;;;4.88;;
19161;SDS011;9713;48.140;11.530;2023-06-05T13:38:41;6.43;;;4.28;;
19161;SDS011;9713;48.140;11.530;2023-06-05T13:42:23;5.22;;;4.28;;
19161;SDS011;9713;48.140;11.530;2023-06-05T13:46:06;6.55;;;4.10;;
19161;SDS011;9713;48.140;11.530;2023-06-05T13:49:51;5.85;;;4.60;;
19161;SDS011;9713;48.140;11.530;2023-06-05T13:53:34;6.45;;;4.38;;
19161;SDS011;9713;48.140;11.530;2023-06-05T13:57:17;5.45;;;4.50;;
19161;SDS011;9713;48.140;11.530;2023-06-05T14:01:00;8.00;;;4.05;;
19161;SDS011;9713;48.140;11.530;2023-06-05T14:04:44;6.25;;;4.20;;
19161;SDS011;9713;48.140;11.530;2023-06-05T14:08:28;9.80;;;3.92;;
19161;SDS011;9713;48.140;11.530;2023-06-05T14:12:14;4.32;;;3.35;;
19161;SDS011;9713;48.140;11.530;2023-06-05T14:15:57;5.15;;;3.60;;
19161;SDS011;9713;48.140;11.530;2023-06-05T14:19:40;4.10;;;3.40;;
19161;SDS011;9713;48.140;11.530;2023-06-05T14:23:23;4.78;;;4.00;;
19161;SDS011;9713;48.140;11.530;2023-06-05T14:27:08;3.92;;;3.53;;
19161;SDS011;9713;48.140;11.530;2023-06-05T14:30:53;6.03;;;3.35;;
19161;SDS011;9713;48.140;11.530;2023-06-05T14:34:36;4.93;;;3.42;;
19161;SDS011;9713;48.140;11.530;2023-06-05T14:38:21;7.95;;;3.50;;
19161;SDS011;9713;48.140;11.530;2023-06-05T14:42:04;8.25;;;3.50;;
19161;SDS011;9713;48.140;11.530;2023-06-05T14:45:50;5.63;;;3.35;;
19161;SDS011;9713;48.140;11.530;2023-06-05T14:49:33;4.75;;;3.20;;
19161;SDS011;9713;48.140;11.530;2023-06-05T14:53:15;4.55;;;3.13;;
19161;SDS011;9713;48.140;11.530;2023-06-05T14:56:58;5.70;;;3.20;;
19161;SDS011;9713;48.140;11.530;2023-06-05T15:00:41;7.47;;;4.30;;
19161;SDS011;9713;48.140;11.530;2023-06-05T15:04:28;4.80;;;3.60;;
19161;SDS011;9713;48.140;11.530;2023-06-05T15:08:12;7.88;;;3.80;;
19161;SDS011;9713;48.140;11.530;2023-06-05T15:11:55;4.85;;;3.00;;
19161;SDS011;9713;48.140;11.530;2023-06-05T15:15:38;5.43;;;3.30;;
19161;SDS011;9713;48.140;11.530;2023-06-05T15:19:21;4.60;;;3.00;;
19161;SDS011;9713;48.140;11.530;2023-06-05T15:23:05;4.57;;;3.50;;
19161;SDS011;9713;48.140;11.530;2023-06-05T15:26:57;5.75;;;3.63;;
19161;SDS011;9713;48.140;11.530;2023-06-05T15:30:39;10.23;;;7.18;;
19161;SDS011;9713;48.140;11.530;2023-06-05T15:34:22;12.20;;;7.28;;
19161;SDS011;9713;48.140;11.530;2023-06-05T15:38:06;4.57;;;3.55;;
19161;SDS011;9713;48.140;11.530;2023-06-05T15:41:49;5.85;;;3.80;;
19161;SDS011;9713;48.140;11.530;2023-06-05T15:45:33;5.97;;;4.10;;
19161;SDS011;9713;48.140;11.530;2023-06-05T15:49:16;6.97;;;4.10;;
19161;SDS011;9713;48.140;11.530;2023-06-05T15:53:00;5.45;;;3.85;;
19161;SDS011;9713;48.140;11.530;2023-06-05T15:57:05;5.72;;;3.70;;
19161;SDS011;9713;48.140;11.530;2023-06-05T16:00:51;5.63;;;4.03;;
19161;SDS011;9713;48.140;11.530;2023-06-05T16:04:33;9.38;;;4.60;;
19161;SDS011;9713;48.140;11.530;2023-06-05T16:08:16;6.68;;;4.25;;
19161;SDS011;9713;48.140;11.530;2023-06-05T16:12:00;6.63;;;3.97;;
19161;SDS011;9713;48.140;11.530;2023-06-05T16:15:44;8.77;;;6.90;;
19161;SDS011;9713;48.140;11.530;2023-06-05T16:19:28;7.80;;;4.32;;
19161;SDS011;9713;48.140;11.530;2023-06-05T16:23:11;6.50;;;4.00;;
19161;SDS011;9713;48.140;11.530;2023-06-05T16:26:54;6.97;;;3.92;;
19161;SDS011;9713;48.140;11.530;2023-06-05T16:30:37;4.57;;;4.10;;
19161;SDS011;9713;48.140;11.530;2023-06-05T16:34:21;5.18;;;4.15;;
19161;SDS011;9713;48.140;11.530;2023-06-05T16:38:04;7.00;;;4.75;;
19161;SDS011;9713;48.140;11.530;2023-06-05T16:41:47;5.30;;;4.32;;
19161;SDS011;9713;48.140;11.530;2023-06-05T16:45:30;5.38;;;4.30;;
19161;SDS011;9713;48.140;11.530;2023-06-05T16:49:17;6.90;;;3.67;;
19161;SDS011;9713;48.140;11.530;2023-06-05T16:53:03;4.05;;;3.65;;
19161;SDS011;9713;48.140;11.530;2023-06-05T16:56:46;4.88;;;4.32;;
19161;SDS011;9713;48.140;11.530;2023-06-05T17:00:31;3.83;;;3.45;;
19161;SDS011;9713;48.140;11.530;2023-06-05T17:04:14;5.68;;;4.55;;
19161;SDS011;9713;48.140;11.530;2023-06-05T17:07:58;6.30;;;4.25;;
19161;SDS011;9713;48.140;11.530;2023-06-05T17:11:43;5.88;;;4.13;;
19161;SDS011;9713;48.140;11.530;2023-06-05T17:15:26;4.35;;;3.90;;
19161;SDS011;9713;48.140;11.530;2023-06-05T17:19:09;5.55;;;4.13;;
19161;SDS011;9713;48.140;11.530;2023-06-05T17:22:52;6.30;;;5.28;;
19161;SDS011;9713;48.140;11.530;2023-06-05T17:26:35;5.63;;;4.00;;
19161;SDS011;9713;48.140;11.530;2023-06-05T17:30:21;7.22;;;4.93;;
19161;SDS011;9713;48.140;11.530;2023-06-05T17:34:04;5.32;;;4.50;;
19161;SDS011;9713;48.140;11.530;2023-06-05T17:37:46;5.90;;;4.15;;
19161;SDS011;9713;48.140;11.530;2023-06-05T17:41:29;4.10;;;3.67;;
19161;SDS011;9713;48.140;11.530;2023-06-05T17:45:12;6.97;;;4.90;;
19161;SDS011;9713;48.140;11.530;2023-06-05T17:48:56;8.40;;;4.90;;
19161;SDS011;9713;48.140;11.530;2023-06-05T17:52:40;8.20;;;4.00;;
19161;SDS011;9713;48.140;11.530;2023-06-05T17:56:23;6.43;;;4.20;;
19161;SDS011;9713;48.140;11.530;2023-06-05T18:00:07;5.40;;;3.85;;
19161;SDS011;9713;48.140;11.530;2023-06-05T18:03:54;7.88;;;5.10;;
19161;SDS011;9713;48.140;11.530;2023-06-05T18:07:41;5.55;;;4.38;;
19161;SDS011;9713;48.140;11.530;2023-06-05T18:11:24;5.65;;;4.30;;
19161;SDS011;9713;48.140;11.530;2023-06-05T18:15:07;6.82;;;4.65;;
19161;SDS011;9713;48.140;11.530;2023-06-05T18:18:51;8.30;;;4.93;;
19161;SDS011;9713;48.140;11.530;2023-06-05T18:22:34;6.32;;;4.55;;
19161;SDS011;9713;48.140;11.530;2023-06-05T18:26:18;7.82;;;6.40;;
19161;SDS011;9713;48.140;11.530;2023-06-05T18:30:01;5.32;;;4.80;;
19161;SDS011;9713;48.140;11.530;2023-06-05T18:33:44;7.25;;;5.50;;
19161;SDS011;9713;48.140;11.530;2023-06-05T18:37:28;5.78;;;5.20;;
19161;SDS011;9713;48.140;11.530;2023-06-05T18:41:10;6.57;;;4.85;;
19161;SDS011;9713;48.140;11.530;2023-06-05T18:44:55;7.63;;;5.15;;
19161;SDS011;9713;48.140;11.530;2023-06-05T18:48:41;7.53;;;4.70;;
19161;SDS011;9713;48.140;11.530;2023-06-05T18:52:26;5.53;;;4.93;;
19161;SDS011;9713;48.140;11.530;2023-06-05T18:56:09;6.93;;;5.15;;
19161;SDS011;9713;48.140;11.530;2023-06-05T18:59:51;7.60;;;5.22;;
19161;SDS011;9713;48.140;11.530;2023-06-05T19:03:36;7.68;;;6.15;;
19161;SDS011;9713;48.140;11.530;2023-06-05T19:07:19;12.68;;;7.95;;
19161;SDS011;9713;48.140;11.530;2023-06-05T19:11:01;10.77;;;6.68;;
19161;SDS011;9713;48.140;11.530;2023-06-05T19:14:45;7.60;;;6.68;;
19161;SDS011;9713;48.140;11.530;2023-06-05T19:18:27;16.60;;;10.02;;
19161;SDS011;9713;48.140;11.530;2023-06-05T19:22:12;8.00;;;6.03;;
19161;SDS011;9713;48.140;11.530;2023-06-05T19:25:54;7.65;;;6.00;;
19161;SDS011;9713;48.140;11.530;2023-06-05T19:29:41;7.28;;;5.97;;
19161;SDS011;9713;48.140;11.530;2023-06-05T19:33:24;9.68;;;5.90;;
19161;SDS011;9713;48.140;11.530;2023-06-05T19:37:07;10.25;;;6.10;;
19161;SDS011;9713;48.140;11.530;2023-06-05T19:40:51;7.38;;;5.55;;
19161;SDS011;9713;48.140;11.530;2023-06-05T19:44:34;7.55;;;6.78;;
19161;SDS011;9713;48.140;11.530;2023-06-05T19:48:18;7.22;;;6.03;;
19161;SDS011;9713;48.140;11.530;2023-06-05T19:52:01;7.38;;;6.25;;
19161;SDS011;9713;48.140;11.530;2023-06-05T19:55:46;9.27;;;7.97;;
19161;SDS011;9713;48.140;11.530;2023-06-05T19:59:30;13.82;;;7.60;;
19161;SDS011;9713;48.140;11.530;2023-06-05T20:03:16;7.47;;;6.70;;
19161;SDS011;9713;48.140;11.530;2023-06-05T20:06:59;8.80;;;6.90;;
19161;SDS011;9713;48.140;11.530;2023-06-05T20:10:43;10.52;;;6.85;;
19161;SDS011;9713;48.140;11.530;2023-06-05T20:14:26;7.82;;;6.32;;
19161;SDS011;9713;48.140;11.530;2023-06-05T20:18:10;7.25;;;6.18;;
19161;SDS011;9713;48.140;11.530;2023-06-05T20:21:53;8.65;;;6.68;;
19161;SDS011;9713;48.140;11.530;2023-06-05T20:25:36;6.60;;;6.00;;
19161;SDS011;9713;48.140;11.530;2023-06-05T20:29:19;7.30;;;6.55;;
19161;SDS011;9713;48.140;11.530;2023-06-05T20:33:01;10.48;;;6.95;;
19161;SDS011;9713;48.140;11.530;2023-06-05T20:36:47;7.70;;;6.78;;
19161;SDS011;9713;48.140;11.530;2023-06-05T20:40:30;10.48;;;6.68;;
19161;SDS011;9713;48.140;11.530;2023-06-05T20:44:14;7.25;;;6.53;;
19161;SDS011;9713;48.140;11.530;2023-06-05T20:47:57;10.13;;;7.18;;
19161;SDS011;9713;48.140;11.530;2023-06-05T20:51:42;8.55;;;7.40;;
19161;SDS011;9713;48.140;11.530;2023-06-05T20:55:28;9.77;;;8.40;;
19161;SDS011;9713;48.140;11.530;2023-06-05T20:59:11;9.65;;;7.85;;
19161;SDS011;9713;48.140;11.530;2023-06-05T21:02:54;9.20;;;8.30;;
19161;SDS011;9713;48.140;11.530;2023-06-05T21:06:37;9.93;;;8.00;;
19161;SDS011;9713;48.140;11.530;2023-06-05T21:10:20;8.60;;;7.70;;
19161;SDS011;9713;48.140;11.530;2023-06-05T21:14:04;10.93;;;7.78;;
19161;SDS011;9713;48.140;11.530;2023-06-05T21:17:46;8.30;;;7.47;;
19161;SDS011;9713;48.140;11.530;2023-06-05T21:21:29;10.02;;;7.72;;
19161;SDS011;9713;48.140;11.530;2023-06-05T21:25:12;9.88;;;7.80;;
19161;SDS011;9713;48.140;11.530;2023-06-05T21:28:55;9.45;;;7.97;;
19161;SDS011;9713;48.140;11.530;2023-06-05T21:32:39;8.68;;;7.78;;
19161;SDS011;9713;48.140;11.530;2023-06-05T21:36:22;8.68;;;7.13;;
19161;SDS011;9713;48.140;11.530;2023-06-05T21:40:06;9.27;;;7.38;;
19161;SDS011;9713;48.140;11.530;2023-06-05T21:43:49;9.38;;;7.38;;
19161;SDS011;9713;48.140;11.530;2023-06-05T21:47:32;8.27;;;7.45;;
19161;SDS011;9713;48.140;11.530;2023-06-05T21:51:16;8.73;;;6.57;;
19161;SDS011;9713;48.140;11.530;2023-06-05T21:54:59;6.80;;;6.10;;
19161;SDS011;9713;48.140;11.530;2023-06-05T21:58:42;6.35;;;5.75;;
19161;SDS011;9713;48.140;11.530;2023-06-05T22:02:24;6.95;;;6.20;;
19161;SDS011;9713;48.140;11.530;2023-06-05T22:06:07;9.00;;;6.00;;
19161;SDS011;9713;48.140;11.530;2023-06-05T22:09:52;6.57;;;5.88;;
19161;SDS011;9713;48.140;11.530;2023-06-05T22:13:35;8.77;;;7.28;;
19161;SDS011;9713;48.140;11.530;2023-06-05T22:17:18;7.43;;;6.30;;
19161;SDS011;9713;48.140;11.530;2023-06-05T22:21:06;8.98;;;7.43;;
19161;SDS011;9713;48.140;11.530;2023-06-05T22:24:54;10.00;;;7.50;;
19161;SDS011;9713;48.140;11.530;2023-06-05T22:28:38;8.70;;;7.10;;
19161;SDS011;9713;48.140;11.530;2023-06-05T22:32:21;9.35;;;6.80;;